Airfield :
LOGIN :

Register | Disclaimer

   EN    FR    IT 

 










Legend :    VFR   Marginal VFR   IFR   Intensive IFR   Very Intensive IFR
Visi :
Ceiling :
>= 8 km
>= 3000ft
5 to 8 km
1000 to 3000 ft
1500m to 5 km
500 to 1000 ft
800 to 1500m
200 to 500 ft
< 800m
< 200 ft
Symbols :   Thunderstorms  Fog  Heavy snow  Heavy precipitations  Wind > 20 kt
SIGMETs :     Misc.  Thunderstorms  Icing  Turbulence  Mountain Waves  Volcanic Ashes






- Airport Elevation : 364 ft
- IATA code : FRA


EDDF - Frankfurt Int.

CURRENT METAR :
  • 180920Z 19006KT 9999 FEW018 05/02 Q1026 NOSIG

EXPIRED METARs :
  • 180850Z 21008KT 9999 FEW018 SCT048 04/01 Q1026 NOSIG
  • 180820Z 20008KT 9999 FEW015 SCT022 03/01 Q1025 NOSIG
  • 180750Z 20006KT 160V260 9999 FEW015 03/01 Q1026 NOSIG
  • 180720Z 17007KT 9999 FEW015 02/01 Q1025 NOSIG
  • 180650Z 15005KT 9999 SCT026 02/00 Q1025 NOSIG

TAF TAF EDDF
Valid from the 18 at 06:00 until the 19 at 12:00 UTC


180500Z 1806/1912 20008KT 9999 FEW030
PROB30
TEMPO 1808/1820 4500 SHRA BKN020CB
PROB30
TEMPO 1820/1822 4000 SHSNRA BKN020CB
PROB30
TEMPO 1822/1907 2500 SHSN BKN020CB
PROB30
TEMPO 1907/1909 4000 SHSNRA BKN020CB
PROB30
TEMPO 1909/1912 SHRA BKN020CB



MET'MAP, your aeronautical weather chart ! - Copyright ORBIFLY December 2007 - Disclaimer

ORBIFLY MET'MAP TEAM :

Programming & Development : Alexandra Zaïnal
Concept & original design : Baudouin d'Aumeries
Assistance for programming : Marc-Olivier Méhu
Technical & hardware support : Manuel Goepfert

Contact : metmap@orbifly.com




SOURCES & CREDITS :

   NOAA